Time;durP1;ratioP1;P1;durP2;ratioP2;P2;SDS_P1;SDS_P2;PMS_P1;PMS_P2;Temp;Humidity;BMP_temperature;BMP_pressure;BME280_temperature;BME280_humidity;BME280_pressure;Samples;Min_cycle;Max_cycle;Signal;HPM_P1;HPM_P2
2021/08/17 00:01:05;;;;;;;20.73;12.38;;;;;;;30.24;59.57;101079.13;5051825;28;66219;-29
2021/08/17 00:03:36;;;;;;;16.55;11.35;;;;;;;30.25;59.48;101084.31;5067203;27;70742;-28
2021/08/17 00:06:08;;;;;;;13.98;12.43;;;;;;;30.34;60.09;101092.19;5051990;28;66588;-28
2021/08/17 00:08:39;;;;;;;21.25;13.70;;;;;;;30.36;60.10;101084.72;5047505;28;69999;-29
2021/08/17 00:11:10;;;;;;;21.73;14.07;;;;;;;30.37;61.79;101102.59;5048178;28;65464;-28
2021/08/17 00:13:42;;;;;;;25.35;14.88;;;;;;;30.41;61.77;101093.84;5048974;28;70758;-28
2021/08/17 00:16:12;;;;;;;;;;;;;;;30.38;62.80;101101.56;5051772;28;65706;-27
2021/08/17 00:18:45;;;;;;;25.20;15.80;;;;;;;30.38;62.41;101077.22;5051105;28;69327;-28
2021/08/17 00:21:16;;;;;;;20.60;16.00;;;;;;;30.50;63.35;101102.56;5051446;28;65088;-28
2021/08/17 00:23:47;;;;;;;26.60;17.00;;;;;;;30.42;63.07;101106.38;5053912;28;70202;-27
2021/08/17 00:26:17;;;;;;;26.75;16.77;;;;;;;30.35;63.59;101110.13;5056582;28;66341;-28
2021/08/17 00:28:50;;;;;;;19.38;17.15;;;;;;;30.26;63.13;101112.22;5062941;28;70261;-27
2021/08/17 00:31:20;;;;;;;19.90;17.13;;;;;;;30.13;63.65;101085.97;5058472;28;65669;-28
2021/08/17 00:33:51;;;;;;;28.83;18.85;;;;;;;30.15;63.93;101097.44;5054422;28;69368;-28
2021/08/17 00:36:21;;;;;;;25.50;19.00;;;;;;;30.16;64.14;101107.19;5059232;28;66162;-28
2021/08/17 00:38:52;;;;;;;26.52;20.20;;;;;;;30.21;64.24;101115.50;5065752;28;70447;-27
2021/08/17 00:41:23;;;;;;;32.30;21.67;;;;;;;30.15;63.37;101113.66;5063176;27;67246;-27
2021/08/17 00:43:54;;;;;;;32.83;21.40;;;;;;;30.09;64.40;101121.75;5059018;28;69931;-32
2021/08/17 00:46:25;;;;;;;36.42;23.00;;;;;;;30.09;64.15;101125.31;5070011;28;65566;-28
2021/08/17 00:48:55;;;;;;;36.13;20.02;;;;;;;30.17;64.02;101125.13;5055702;28;69918;-28
2021/08/17 00:51:29;;;;;;;30.10;19.35;;;;;;;30.22;64.78;101116.38;5070304;27;66332;-29
2021/08/17 00:54:01;;;;;;;30.10;19.52;;;;;;;29.97;64.94;101070.19;5055282;28;68987;-28
2021/08/17 00:56:31;;;;;;;28.30;18.65;;;;;;;30.42;64.35;101128.03;5055571;28;65201;-29
2021/08/17 00:59:03;;;;;;;29.02;17.38;;;;;;;30.46;64.64;101129.25;5048788;28;70064;-28
2021/08/17 01:01:34;;;;;;;21.90;17.95;;;;;;;30.53;65.09;101134.63;5035834;28;66656;-29
2021/08/17 01:04:06;;;;;;;24.70;16.42;;;;;;;30.57;64.49;101133.19;5050539;28;69941;-29
2021/08/17 01:06:38;;;;;;;23.15;16.88;;;;;;;30.57;64.63;101135.88;5042336;28;65755;-28
2021/08/17 01:09:14;;;;;;;28.05;17.88;;;;;;;30.60;63.96;101140.88;5047581;28;68711;-29
2021/08/17 01:11:48;;;;;;;26.38;16.70;;;;;;;30.59;64.97;101143.78;5045832;28;66050;-27
2021/08/17 01:14:20;;;;;;;20.33;16.23;;;;;;;30.68;64.05;101147.94;5045592;28;70575;-28
2021/08/17 01:16:51;;;;;;;;;;;;;;;30.67;64.82;101136.28;5048298;28;66063;-28
2021/08/17 01:19:22;;;;;;;23.52;16.67;;;;;;;30.78;63.86;101142.88;5050429;28;70363;-28
2021/08/17 01:21:52;;;;;;;25.13;16.40;;;;;;;30.78;63.60;101136.66;5047307;28;66148;-29
2021/08/17 01:24:23;;;;;;;21.33;16.48;;;;;;;30.83;63.58;101145.00;5042143;28;70444;-28
2021/08/17 01:26:54;;;;;;;33.47;18.43;;;;;;;30.72;64.12;101122.91;5048441;28;66287;-28
2021/08/17 01:29:25;;;;;;;32.65;18.27;;;;;;;30.89;64.09;101149.56;5051861;27;68432;-27
2021/08/17 01:31:57;;;;;;;30.63;16.95;;;;;;;30.84;63.75;101125.00;5051792;28;66395;-28
2021/08/17 01:34:28;;;;;;;27.42;16.98;;;;;;;30.95;64.57;101132.44;5044212;28;70122;-27
2021/08/17 01:36:59;;;;;;;29.20;17.30;;;;;;;30.97;63.96;101135.78;5048153;28;66576;-28
2021/08/17 01:39:30;;;;;;;30.50;17.23;;;;;;;31.01;64.21;101128.91;5053115;27;70776;-29
2021/08/17 01:42:01;;;;;;;25.35;17.52;;;;;;;31.02;64.41;101130.53;5045699;28;66559;-28
2021/08/17 01:44:31;;;;;;;26.60;17.42;;;;;;;31.07;64.29;101125.31;5045565;28;70426;-28
2021/08/17 01:47:53;;;;;;;20.95;16.65;;;;;;;31.06;64.23;101126.34;5046871;28;66008;-28
2021/08/17 01:50:55;;;;;;;22.52;17.15;;;;;;;31.11;63.83;101115.69;5052822;27;70268;-27
2021/08/17 01:53:34;;;;;;;27.38;16.65;;;;;;;30.98;62.56;101106.81;5030035;28;66027;-28
2021/08/17 01:57:15;;;;;;;26.67;15.30;;;;;;;31.00;60.89;101124.50;5046514;28;70567;-27
2021/08/17 02:00:07;;;;;;;32.50;15.82;;;;;;;31.03;59.85;101123.25;5025957;28;66400;-28
2021/08/17 02:02:53;;;;;;;36.13;14.73;;;;;;;30.94;57.99;101111.81;5031105;28;69151;-28
2021/08/17 02:05:25;;;;;;;43.45;13.75;;;;;;;30.91;57.16;101126.63;5045530;28;65969;-28
2021/08/17 02:08:05;;;;;;;24.77;12.77;;;;;;;30.82;55.73;101121.69;5041757;28;70157;-28
2021/08/17 02:10:37;;;;;;;30.73;14.00;;;;;;;30.91;56.66;101112.25;5049706;28;64949;-28
2021/08/17 02:13:08;;;;;;;32.38;13.02;;;;;;;30.87;55.46;101120.00;5058076;27;70273;-27
2021/08/17 02:15:40;;;;;;;25.02;14.05;;;;;;;30.72;55.89;101084.19;5042570;28;66928;-28
2021/08/17 02:18:12;;;;;;;23.45;14.13;;;;;;;30.88;55.81;101115.41;5055097;28;70194;-28
2021/08/17 02:20:43;;;;;;;26.07;12.87;;;;;;;30.85;54.93;101121.25;5056112;27;65941;-28
2021/08/17 02:23:14;;;;;;;22.98;13.60;;;;;;;30.82;53.82;101105.44;5048542;28;69868;-28
2021/08/17 02:25:45;;;;;;;19.73;11.80;;;;;;;30.66;52.67;101091.28;5046759;28;66674;-27
2021/08/17 02:28:15;;;;;;;18.02;12.23;;;;;;;30.79;52.39;101109.38;5051121;28;70451;-28
2021/08/17 02:30:48;;;;;;;22.63;12.43;;;;;;;30.73;51.88;101108.34;5062519;27;65517;-27
2021/08/17 02:33:19;;;;;;;;;;;;;;;30.64;51.73;101120.44;5054654;28;70623;-31
2021/08/17 02:35:50;;;;;;;32.20;11.32;;;;;;;30.63;51.11;101124.19;5055259;28;66260;-31
2021/08/17 02:38:20;;;;;;;26.13;11.65;;;;;;;30.49;51.47;101118.00;5049953;28;70093;-32
2021/08/17 02:40:51;;;;;;;29.58;11.77;;;;;;;30.57;51.12;101125.06;5052721;28;65455;-31
2021/08/17 02:43:24;;;;;;;17.40;11.55;;;;;;;30.55;51.33;101116.31;5057742;28;70492;-31
2021/08/17 02:45:56;;;;;;;26.67;11.95;;;;;;;30.47;51.44;101111.13;5056150;27;66469;-31
2021/08/17 02:48:26;;;;;;;28.73;11.27;;;;;;;30.47;50.95;101114.66;5048696;28;70220;-32
2021/08/17 02:51:00;;;;;;;15.13;10.80;;;;;;;30.58;50.24;101110.47;5039058;28;66017;-31
2021/08/17 02:53:30;;;;;;;19.10;10.98;;;;;;;30.53;49.12;101107.56;5050879;28;70143;-39
2021/08/17 02:56:01;;;;;;;19.08;10.98;;;;;;;30.46;48.99;101091.34;5049190;28;65647;-32
2021/08/17 02:58:31;;;;;;;39.15;10.20;;;;;;;30.49;48.36;101101.75;5033388;28;70019;-31
2021/08/17 03:01:02;;;;;;;35.92;10.82;;;;;;;30.49;48.58;101100.91;5032601;28;67239;-31
2021/08/17 03:03:32;;;;;;;40.60;10.55;;;;;;;30.49;48.04;101096.34;5050263;28;69336;-31
2021/08/17 03:06:03;;;;;;;33.75;9.60;;;;;;;30.53;47.73;101107.56;5047718;28;66478;-31
2021/08/17 03:08:33;;;;;;;30.75;9.65;;;;;;;30.55;47.11;101102.78;5026281;28;70141;-30
2021/08/17 03:11:05;;;;;;;36.20;9.07;;;;;;;30.54;47.21;101098.41;5044058;28;65729;-30
2021/08/17 03:13:36;;;;;;;21.30;9.23;;;;;;;30.54;45.59;101098.41;5044247;28;70499;-31
2021/08/17 03:16:07;;;;;;;39.35;8.30;;;;;;;30.49;45.02;101085.50;5048647;28;66124;-31
2021/08/17 03:18:38;;;;;;;23.83;8.52;;;;;;;30.59;45.72;101095.91;5051202;28;69621;-32
2021/08/17 03:21:09;;;;;;;23.13;8.25;;;;;;;30.39;44.87;101060.75;5058346;28;67058;-32
2021/08/17 03:23:39;;;;;;;14.68;8.05;;;;;;;30.61;45.32;101082.13;5048448;28;69748;-32
2021/08/17 03:26:11;;;;;;;31.65;8.13;;;;;;;30.53;44.50;101080.50;5053031;28;65579;-31
2021/08/17 03:28:42;;;;;;;20.38;7.30;;;;;;;30.69;44.96;101088.16;5047884;28;70173;-32
2021/08/17 03:31:12;;;;;;;17.88;7.40;;;;;;;30.72;44.49;101079.59;5052588;28;66274;-31
2021/08/17 03:33:43;;;;;;;16.25;7.82;;;;;;;30.69;44.59;101077.31;5048167;28;69993;-32
2021/08/17 03:36:13;;;;;;;32.35;7.95;;;;;;;30.70;44.66;101081.69;5046480;28;65515;-32
2021/08/17 03:38:44;;;;;;;24.05;7.63;;;;;;;30.72;44.51;101074.16;5043487;28;69929;-30
2021/08/17 03:41:15;;;;;;;23.17;7.40;;;;;;;30.75;45.01;101063.97;5043675;28;67128;-30
2021/08/17 03:43:45;;;;;;;29.98;8.57;;;;;;;30.73;44.97;101064.19;5062457;27;69997;-32
2021/08/17 03:46:19;;;;;;;18.92;7.82;;;;;;;30.81;44.41;101065.84;5046511;28;66492;-31
2021/08/17 03:48:50;;;;;;;20.52;7.47;;;;;;;30.73;44.22;101054.19;5045230;28;70432;-32
2021/08/17 03:51:20;;;;;;;19.73;7.60;;;;;;;30.77;43.92;101049.16;5039734;28;66239;-32
2021/08/17 03:53:51;;;;;;;13.35;6.35;;;;;;;30.79;43.79;101057.09;5045853;28;69627;-32
2021/08/17 03:56:21;;;;;;;17.05;6.57;;;;;;;30.77;42.89;101048.34;5012704;28;66320;-31
2021/08/17 03:58:52;;;;;;;9.57;6.72;;;;;;;30.81;43.73;101038.75;5025742;28;69078;-31
2021/08/17 04:01:22;;;;;;;15.70;6.82;;;;;;;30.92;43.14;101024.53;5046781;28;66207;-32
2021/08/17 04:03:53;;;;;;;12.00;7.13;;;;;;;30.96;42.85;101025.75;5044572;28;70467;-31
2021/08/17 04:06:24;;;;;;;9.80;6.93;;;;;;;31.02;43.96;101024.88;5040641;28;66805;-30
2021/08/17 04:08:54;;;;;;;7.28;5.70;;;;;;;31.03;43.86;101031.97;5047347;28;70175;-30
2021/08/17 04:11:25;;;;;;;14.02;4.90;;;;;;;31.03;43.55;101021.13;5047369;28;67641;-30
2021/08/17 04:13:56;;;;;;;7.60;4.80;;;;;;;31.06;44.01;101026.09;5041789;27;70276;-31
2021/08/17 04:16:26;;;;;;;11.38;4.68;;;;;;;31.06;43.55;101004.44;5049900;28;66479;-30
2021/08/17 04:18:56;;;;;;;7.15;3.95;;;;;;;31.10;43.30;101005.66;5042956;28;70027;-31
2021/08/17 04:21:27;;;;;;;9.32;4.28;;;;;;;31.12;43.81;101005.44;5042622;28;67146;-31
2021/08/17 04:24:00;;;;;;;15.48;4.72;;;;;;;31.07;44.85;101000.69;5047862;28;69931;-30
2021/08/17 04:26:30;;;;;;;11.98;4.55;;;;;;;31.22;44.22;101013.09;5044898;28;66264;-31
2021/08/17 04:29:01;;;;;;;27.83;4.53;;;;;;;31.20;44.19;101013.28;5049811;28;70450;-30
2021/08/17 04:31:31;;;;;;;16.42;4.38;;;;;;;31.22;43.50;101002.25;5031587;28;66388;-32
2021/08/17 04:34:02;;;;;;;23.38;3.58;;;;;;;31.20;42.24;101004.34;5045126;28;70500;-32
2021/08/17 04:36:33;;;;;;;23.30;3.78;;;;;;;31.25;42.54;101001.81;5047894;28;66230;-30
2021/08/17 04:39:03;;;;;;;24.83;4.35;;;;;;;31.15;41.82;100986.06;5051299;28;70136;-30
2021/08/17 04:41:34;;;;;;;22.02;4.00;;;;;;;31.17;42.06;100990.19;5050741;28;67698;-31
2021/08/17 04:44:04;;;;;;;19.30;3.78;;;;;;;31.28;41.83;100987.81;5051549;28;70109;-31
2021/08/17 04:46:35;;;;;;;13.10;3.80;;;;;;;31.23;41.82;100983.06;5054032;28;66442;-30
2021/08/17 04:49:08;;;;;;;19.45;3.83;;;;;;;31.27;41.44;100978.03;5052485;28;71303;-30
2021/08/17 04:51:43;;;;;;;25.60;4.38;;;;;;;31.32;41.29;100975.50;5053334;27;67078;-31
2021/08/17 04:54:13;;;;;;;14.80;3.40;;;;;;;31.33;41.86;100960.88;5052197;28;69583;-31
2021/08/17 04:56:44;;;;;;;19.15;3.75;;;;;;;31.29;40.94;100954.25;5047351;28;66749;-32
2021/08/17 04:59:15;;;;;;;30.90;4.10;;;;;;;31.35;41.85;100958.78;5047018;28;69697;-33
2021/08/17 05:01:48;;;;;;;20.75;3.97;;;;;;;31.37;41.34;100943.13;5053776;28;66338;-32
2021/08/17 05:04:19;;;;;;;35.20;4.60;;;;;;;31.42;42.53;100954.16;5058461;27;70300;-32
2021/08/17 05:06:51;;;;;;;15.30;3.90;;;;;;;31.47;42.57;100946.19;5057797;27;65560;-31
2021/08/17 05:09:22;;;;;;;23.42;3.88;;;;;;;31.54;41.74;100935.28;5053756;28;69740;-32
2021/08/17 05:11:53;;;;;;;21.60;5.20;;;;;;;31.58;44.08;100937.31;5054806;28;66053;-32
2021/08/17 05:14:23;;;;;;;42.03;5.65;;;;;;;31.60;43.36;100934.41;5058386;28;70251;-30
2021/08/17 05:16:54;;;;;;;50.70;6.60;;;;;;;31.48;44.74;100888.22;5056443;28;65878;-30
2021/08/17 05:19:25;;;;;;;35.50;6.47;;;;;;;31.68;44.68;100919.69;5051767;28;70289;-31
2021/08/17 05:21:57;;;;;;;36.08;6.72;;;;;;;31.77;44.09;100912.94;5054086;28;65351;-31
2021/08/17 05:24:28;;;;;;;58.50;5.60;;;;;;;31.78;44.61;100901.03;5054874;28;70275;-32
2021/08/17 05:26:58;;;;;;;53.08;6.32;;;;;;;31.91;44.49;100914.47;5047777;28;66041;-31
2021/08/17 05:29:29;;;;;;;51.25;6.20;;;;;;;31.94;44.75;100908.59;5052785;28;69615;-31
2021/08/17 05:31:59;;;;;;;60.92;6.43;;;;;;;31.99;44.12;100900.59;5044942;28;65712;-30
2021/08/17 05:34:30;;;;;;;54.70;5.88;;;;;;;31.99;44.12;100895.19;5047316;28;69196;-30
2021/08/17 05:37:01;;;;;;;39.05;5.70;;;;;;;32.02;44.11;100893.88;5046455;28;65227;-31
2021/08/17 05:39:31;;;;;;;49.83;5.50;;;;;;;32.04;43.54;100886.38;5046036;27;70229;-30
2021/08/17 05:42:03;;;;;;;42.28;5.40;;;;;;;31.99;43.38;100888.94;5049951;28;65740;-32
2021/08/17 05:44:34;;;;;;;34.17;4.80;;;;;;;32.04;43.32;100889.91;5047517;28;70125;-31
2021/08/17 05:47:05;;;;;;;41.47;5.20;;;;;;;32.12;42.84;100877.06;5051622;28;66620;-31
2021/08/17 05:49:38;;;;;;;40.67;5.57;;;;;;;32.17;42.93;100863.63;5049136;28;70496;-31
2021/08/17 05:52:13;;;;;;;18.15;5.40;;;;;;;32.15;43.73;100854.88;5024336;28;65643;-30
2021/08/17 05:54:44;;;;;;;36.67;5.15;;;;;;;32.23;44.41;100862.69;5056968;28;69868;-31
2021/08/17 05:57:15;;;;;;;26.80;5.35;;;;;;;32.23;43.31;100857.28;5053085;28;66950;-30
2021/08/17 05:59:45;;;;;;;47.42;5.05;;;;;;;32.19;42.99;100850.66;5048122;28;68492;-31
2021/08/17 06:02:17;;;;;;;27.70;5.05;;;;;;;32.09;42.41;100844.94;5051739;27;65647;-31
2021/08/17 06:04:47;;;;;;;22.00;4.50;;;;;;;32.03;42.15;100836.66;5047715;28;69821;-31
2021/08/17 06:07:18;;;;;;;37.47;4.85;;;;;;;32.09;41.79;100836.81;5051288;28;65534;-32
2021/08/17 06:09:49;;;;;;;19.30;4.63;;;;;;;32.02;41.78;100835.03;5045963;28;70701;-32
2021/08/17 06:12:19;;;;;;;14.07;3.67;;;;;;;32.01;41.32;100838.81;5049423;28;66184;-32
2021/08/17 06:14:49;;;;;;;9.77;3.70;;;;;;;32.03;41.27;100827.69;5051706;27;70529;-32
2021/08/17 06:17:20;;;;;;;12.10;3.13;;;;;;;31.85;40.26;100806.84;5031516;28;65809;-30
2021/08/17 06:19:51;;;;;;;16.02;2.97;;;;;;;31.94;40.01;100819.06;5051149;28;70084;-32
2021/08/17 06:22:21;;;;;;;11.15;2.70;;;;;;;32.01;39.74;100816.25;5049331;28;66562;-31
2021/08/17 06:25:06;;;;;;;5.82;2.95;;;;;;;32.00;40.12;100810.00;5007632;28;69103;-31
2021/08/17 06:27:38;;;;;;;5.25;2.05;;;;;;;31.87;39.83;100788.44;5006390;28;65969;-30
2021/08/17 06:30:08;;;;;;;8.77;2.22;;;;;;;31.98;39.37;100785.00;4991774;28;69225;-31
2021/08/17 06:32:55;;;;;;;3.20;2.40;;;;;;;31.94;39.26;100797.34;5008627;28;65981;-31
2021/08/17 06:35:25;;;;;;;2.42;2.03;;;;;;;31.89;38.63;100770.06;4990726;28;69818;-31
2021/08/17 06:37:56;;;;;;;3.55;2.10;;;;;;;32.01;38.53;100784.53;5001743;28;66400;-31
2021/08/17 06:40:27;;;;;;;2.28;1.52;;;;;;;31.97;38.86;100771.66;5004236;28;70186;-31
2021/08/17 06:42:57;;;;;;;7.57;2.00;;;;;;;32.03;38.34;100766.13;5004997;28;66353;-31
2021/08/17 06:45:30;;;;;;;4.30;1.80;;;;;;;31.97;38.43;100772.47;5009538;28;70762;-33
2021/08/17 06:48:01;;;;;;;2.42;1.92;;;;;;;31.98;37.84;100768.72;5007576;28;68623;-32
2021/08/17 06:50:44;;;;;;;8.35;2.08;;;;;;;32.02;37.95;100760.94;5006732;28;69511;-38
2021/08/17 06:53:15;;;;;;;2.22;1.70;;;;;;;32.00;37.78;100753.03;4991748;28;66229;-30
2021/08/17 06:55:46;;;;;;;3.65;1.85;;;;;;;31.99;38.18;100753.28;5004905;28;69999;-33
2021/08/17 06:58:17;;;;;;;11.38;2.20;;;;;;;32.02;37.54;100745.47;4976050;28;66117;-31
2021/08/17 07:00:48;;;;;;;2.03;1.80;;;;;;;32.07;37.77;100741.22;4986852;28;69982;-31
2021/08/17 07:03:19;;;;;;;1.90;1.80;;;;;;;31.97;37.61;100729.06;5002026;28;66840;-32
2021/08/17 07:05:50;;;;;;;3.38;1.75;;;;;;;32.09;37.44;100726.38;5004813;28;70186;-31
2021/08/17 07:08:21;;;;;;;7.93;1.60;;;;;;;32.05;38.00;100723.31;5003066;28;66784;-31
2021/08/17 07:10:52;;;;;;;4.85;1.75;;;;;;;32.10;37.00;100717.19;5064214;27;69381;-31
2021/08/17 07:13:26;;;;;;;4.30;1.60;;;;;;;32.09;37.03;100704.66;5031147;28;66576;-31
2021/08/17 07:15:57;;;;;;;3.22;1.60;;;;;;;32.10;37.18;100709.06;5048052;28;69693;-33
2021/08/17 07:18:28;;;;;;;6.38;1.85;;;;;;;32.09;36.71;100703.84;5031794;28;65587;-32
2021/08/17 07:20:58;;;;;;;3.63;1.45;;;;;;;32.12;36.74;100703.38;5053595;28;70362;-31
2021/08/17 07:23:29;;;;;;;5.95;1.60;;;;;;;32.18;37.12;100695.16;5060943;28;66870;-31
2021/08/17 07:26:00;;;;;;;9.30;2.42;;;;;;;32.18;37.26;100688.88;5053063;28;69994;-31
2021/08/17 07:28:30;;;;;;;5.68;2.10;;;;;;;32.10;36.93;100672.97;5057952;28;65520;-31
2021/08/17 07:31:01;;;;;;;2.42;1.85;;;;;;;32.16;37.37;100669.31;5051575;28;69612;-32
2021/08/17 07:33:32;;;;;;;5.85;2.17;;;;;;;32.31;37.19;100669.66;5056853;28;66125;-33
2021/08/17 07:39:29;;;;;;;8.27;1.90;;;;;;;32.45;37.45;100664.81;5051982;28;66400;-32
2021/08/17 07:42:00;;;;;;;14.25;2.30;;;;;;;32.44;37.17;100658.56;5050841;28;70125;-32
2021/08/17 07:44:31;;;;;;;6.57;1.70;;;;;;;32.48;37.32;100653.53;5050688;28;66693;-32
2021/08/17 07:47:02;;;;;;;5.75;2.20;;;;;;;32.54;37.26;100658.03;5051368;28;70545;-32
2021/08/17 07:49:33;;;;;;;2.10;1.90;;;;;;;32.58;37.50;100648.34;5051550;28;65343;-30
2021/08/17 07:52:03;;;;;;;2.25;2.08;;;;;;;32.61;37.71;100641.59;5063260;27;70653;-32
2021/08/17 07:54:34;;;;;;;2.13;2.00;;;;;;;32.61;37.49;100631.56;5032073;28;65151;-31
2021/08/17 07:57:05;;;;;;;11.93;2.05;;;;;;;32.63;37.26;100628.63;5054321;27;69936;-32
2021/08/17 07:59:36;;;;;;;17.50;2.10;;;;;;;32.64;37.26;100617.50;5045099;28;66623;-33
2021/08/17 08:02:07;;;;;;;25.02;2.70;;;;;;;32.67;36.86;100614.31;5052003;28;69440;-31
2021/08/17 08:04:53;;;;;;;25.35;2.80;;;;;;;32.69;37.01;100612.19;5037112;27;65343;-36
2021/08/17 08:07:24;;;;;;;16.88;1.90;;;;;;;32.68;37.41;100593.41;5039138;28;70189;-31
2021/08/17 08:09:55;;;;;;;4.80;1.83;;;;;;;32.75;37.39;100610.41;5048440;28;65484;-32
2021/08/17 08:12:25;;;;;;;6.68;1.70;;;;;;;32.78;37.06;100612.63;5048224;28;69310;-31
2021/08/17 08:15:08;;;;;;;2.95;1.45;;;;;;;32.67;36.89;100602.63;5056661;28;65511;-32
2021/08/17 08:17:39;;;;;;;2.22;1.52;;;;;;;32.81;37.24;100608.63;5047501;28;70036;-31
2021/08/17 08:20:10;;;;;;;2.13;1.92;;;;;;;32.84;36.98;100598.09;5050659;28;64282;-32
2021/08/17 08:22:41;;;;;;;7.45;1.77;;;;;;;32.83;37.36;100577.44;5049011;28;70599;-31
2021/08/17 08:25:12;;;;;;;4.00;2.50;;;;;;;32.93;37.71;100572.22;5056469;28;66336;-31
2021/08/17 08:27:43;;;;;;;4.43;3.00;;;;;;;32.93;38.93;100574.94;5042099;28;69919;-31
2021/08/17 08:30:14;;;;;;;4.43;2.63;;;;;;;32.93;38.68;100580.34;5054450;28;65590;-31
2021/08/17 08:32:45;;;;;;;2.95;2.75;;;;;;;32.99;38.48;100594.03;5036117;28;70044;-32
2021/08/17 08:35:17;;;;;;;2.67;2.45;;;;;;;32.96;38.22;100610.81;5035548;28;65292;-31
2021/08/17 08:37:48;;;;;;;3.90;2.10;;;;;;;32.94;37.68;100624.66;5051536;28;69443;-31
2021/08/17 08:40:26;;;;;;;2.63;2.35;;;;;;;32.57;37.66;100565.22;5057377;27;66658;-32
2021/08/17 08:42:56;;;;;;;2.42;2.22;;;;;;;32.92;37.48;100616.72;5027137;28;70287;-32
2021/08/17 08:45:28;;;;;;;4.57;2.55;;;;;;;32.91;37.73;100620.53;5057681;28;65708;-32
2021/08/17 08:47:59;;;;;;;7.90;2.40;;;;;;;32.97;38.09;100612.47;5020203;28;71056;-31
2021/08/17 08:50:33;;;;;;;2.83;2.63;;;;;;;32.90;38.01;100590.88;5047248;27;65673;-31
2021/08/17 08:53:03;;;;;;;2.80;2.60;;;;;;;32.94;37.66;100587.44;5048346;28;70409;-32
2021/08/17 08:55:34;;;;;;;2.38;2.28;;;;;;;32.90;37.56;100586.28;5052794;28;66211;-32
2021/08/17 08:58:04;;;;;;;2.13;2.03;;;;;;;32.91;37.12;100592.53;5044290;28;69791;-31
2021/08/17 09:00:34;;;;;;;2.45;2.30;;;;;;;32.91;37.21;100587.91;5053365;28;66266;-31
2021/08/17 09:03:05;;;;;;;1.90;1.80;;;;;;;32.88;37.09;100593.84;5046293;28;70617;-31
2021/08/17 09:05:53;;;;;;;2.10;2.00;;;;;;;32.78;36.75;100587.38;5050337;28;65262;-32
2021/08/17 09:08:30;;;;;;;2.58;2.47;;;;;;;32.52;37.19;100532.53;5049166;28;69840;-31
2021/08/17 09:11:21;;;;;;;2.65;2.55;;;;;;;32.77;36.91;100578.41;5046016;27;66577;-31
2021/08/17 09:13:52;;;;;;;2.70;2.50;;;;;;;32.88;37.20;100582.97;5043271;28;70185;-31
2021/08/17 09:16:30;;;;;;;3.95;2.42;;;;;;;32.84;36.68;100592.66;5048942;28;66670;-31
2021/08/17 09:19:01;;;;;;;2.38;2.25;;;;;;;32.84;36.93;100598.09;5043391;28;71984;-31
2021/08/17 09:21:38;;;;;;;2.92;2.72;;;;;;;32.77;36.32;100600.13;5056129;28;66600;-31
2021/08/17 09:24:20;;;;;;;2.60;2.50;;;;;;;32.40;36.40;100551.53;5057737;28;69265;-31
2021/08/17 09:26:56;;;;;;;11.93;3.20;;;;;;;32.37;37.46;100532.16;5051899;27;66044;-32
2021/08/17 09:29:36;;;;;;;33.67;3.17;;;;;;;32.92;38.47;100624.06;5050760;28;70648;-31
2021/08/17 09:32:19;;;;;;;32.85;4.00;;;;;;;32.48;39.44;100545.78;5053412;28;65818;-32
2021/08/17 09:34:55;;;;;;;23.55;4.40;;;;;;;33.05;39.84;100612.13;5045385;28;69398;-32
2021/08/17 09:37:28;;;;;;;21.50;3.88;;;;;;;32.87;40.79;100592.16;5065744;27;66707;-32
2021/08/17 09:40:03;;;;;;;10.98;5.13;;;;;;;32.69;42.73;100546.19;5035234;28;70267;-31
2021/08/17 09:42:35;;;;;;;12.50;7.53;;;;;;;33.24;45.13;100624.47;5053916;28;66652;-31
2021/08/17 09:45:16;;;;;;;12.98;7.68;;;;;;;33.31;45.77;100629.75;5037499;28;69935;-31
2021/08/17 09:47:57;;;;;;;13.68;8.30;;;;;;;33.29;49.27;100621.84;5045132;28;66875;-32
2021/08/17 09:50:41;;;;;;;12.00;9.43;;;;;;;33.36;48.29;100606.19;5049591;28;69402;-32
2021/08/17 09:53:21;;;;;;;11.85;9.55;;;;;;;33.08;48.90;100557.28;5056709;28;65764;-31
2021/08/17 09:55:57;;;;;;;10.60;9.50;;;;;;;33.34;49.62;100619.19;5053211;28;70166;-32
2021/08/17 09:58:37;;;;;;;11.43;10.00;;;;;;;32.71;50.03;100525.88;5052927;28;66622;-33
2021/08/17 10:01:09;;;;;;;14.43;10.27;;;;;;;33.50;50.22;100673.88;5040530;28;69328;-31
2021/08/17 10:03:41;;;;;;;24.08;12.52;;;;;;;33.53;51.05;100681.59;5050005;28;65978;-36
2021/08/17 10:06:11;;;;;;;13.70;12.30;;;;;;;33.58;51.10;100689.84;5037075;28;71029;-32
2021/08/17 10:08:42;;;;;;;25.95;12.50;;;;;;;33.58;51.74;100696.09;5016948;28;66160;-31
2021/08/17 10:11:16;;;;;;;19.20;14.02;;;;;;;33.57;51.56;100677.28;5032801;28;69984;-30
2021/08/17 10:13:47;;;;;;;23.00;15.85;;;;;;;33.62;52.66;100696.44;5052153;27;66075;-32
2021/08/17 10:16:18;;;;;;;27.52;16.83;;;;;;;33.61;52.51;100678.47;5048906;28;70064;-33
2021/08/17 10:18:49;;;;;;;23.97;18.07;;;;;;;33.65;52.86;100674.19;5053211;28;66754;-32
2021/08/17 10:21:20;;;;;;;35.58;20.98;;;;;;;33.68;53.04;100662.81;5055995;28;70462;-31
2021/08/17 10:23:51;;;;;;;;;;;;;;;33.63;53.61;100649.13;5066393;28;65538;-32
2021/08/17 10:26:33;;;;;;;34.75;19.55;;;;;;;33.69;53.95;100652.78;5045742;28;69067;-31
2021/08/17 10:29:27;;;;;;;36.00;19.95;;;;;;;33.68;53.76;100673.69;5050149;28;65312;-32
2021/08/17 10:31:59;;;;;;;28.50;19.02;;;;;;;33.66;53.52;100677.75;5033570;28;69665;-30
2021/08/17 10:34:37;;;;;;;37.67;20.10;;;;;;;33.37;54.01;100651.34;5053050;28;66295;-32
2021/08/17 10:37:35;;;;;;;28.70;19.38;;;;;;;33.67;53.75;100699.25;5032422;28;68981;-31
2021/08/17 10:40:06;;;;;;;29.55;18.33;;;;;;;33.49;53.34;100664.06;5049679;28;65698;-32
2021/08/17 10:42:51;;;;;;;31.67;17.98;;;;;;;33.59;54.01;100683.31;5052345;28;69731;-31
2021/08/17 10:45:28;;;;;;;24.88;18.42;;;;;;;33.70;53.84;100717.81;5045272;28;65618;-31
2021/08/17 10:47:58;;;;;;;31.90;18.58;;;;;;;33.67;53.51;100714.75;5048360;28;70264;-31
2021/08/17 10:50:33;;;;;;;29.05;16.23;;;;;;;33.66;53.74;100730.25;5050423;28;66502;-31
2021/08/17 10:53:37;;;;;;;22.65;16.90;;;;;;;33.66;54.20;100735.69;5049137;28;70627;-30
2021/08/17 10:56:16;;;;;;;21.27;16.75;;;;;;;33.66;54.44;100732.97;5041206;28;65571;-30
2021/08/17 10:58:49;;;;;;;19.95;16.23;;;;;;;33.29;53.77;100678.94;5046872;28;69190;-31
2021/08/17 11:01:45;;;;;;;22.38;16.02;;;;;;;33.65;54.29;100755.78;5048915;27;65870;-32
2021/08/17 11:04:17;;;;;;;16.88;15.07;;;;;;;33.67;54.10;100767.25;5047280;28;71588;-31
2021/08/17 11:06:56;;;;;;;15.70;14.20;;;;;;;33.63;54.98;100766.09;5029325;28;66401;-33
2021/08/17 11:09:30;;;;;;;25.42;15.88;;;;;;;33.55;55.40;100766.47;5059148;27;70383;-31
2021/08/17 11:12:09;;;;;;;20.95;14.48;;;;;;;33.52;55.17;100772.38;5046842;28;65894;-31
2021/08/17 11:14:42;;;;;;;19.08;15.13;;;;;;;33.51;53.28;100793.28;5048079;27;69346;-31
2021/08/17 11:17:15;;;;;;;17.63;14.48;;;;;;;33.03;51.80;100741.97;5028863;28;66342;-31
2021/08/17 11:19:48;;;;;;;23.67;14.23;;;;;;;33.18;52.40;100785.78;5046208;28;69797;-31
2021/08/17 11:22:27;;;;;;;18.83;13.75;;;;;;;33.11;51.71;100766.06;5033935;28;65090;-32
2021/08/17 11:25:02;;;;;;;19.63;14.65;;;;;;;32.78;51.41;100724.00;5047011;28;69928;-31
2021/08/17 11:27:43;;;;;;;19.77;14.93;;;;;;;33.06;51.63;100798.56;5049723;28;65959;-31
2021/08/17 11:30:16;;;;;;;23.02;14.77;;;;;;;33.02;51.47;100810.97;5054573;28;69314;-32
2021/08/17 11:32:55;;;;;;;28.00;15.52;;;;;;;32.55;51.25;100748.47;5053777;28;65365;-32
2021/08/17 11:35:29;;;;;;;15.60;13.27;;;;;;;32.90;50.29;100806.34;5056536;28;70128;-30
2021/08/17 11:38:00;;;;;;;28.90;14.05;;;;;;;32.82;49.84;100801.25;5060617;28;65331;-31
2021/08/17 11:40:31;;;;;;;42.67;14.20;;;;;;;32.78;49.77;100799.25;5053894;28;70750;-38
2021/08/17 11:43:02;;;;;;;28.00;12.43;;;;;;;32.80;49.21;100803.38;5054008;28;65893;-40
2021/08/17 11:45:37;;;;;;;33.20;12.88;;;;;;;32.72;49.13;100790.97;5053911;28;70205;-40
2021/08/17 11:48:08;;;;;;;21.98;11.30;;;;;;;32.66;48.59;100791.09;5053426;27;66404;-39